createdAt,value
2018-05-17T00:00:53.263Z,72.73
2018-05-17T00:03:21.376Z,148.83
2018-05-17T00:05:49.499Z,56.90
2018-05-17T00:08:18.386Z,105.63
2018-05-17T00:10:46.518Z,194.23
2018-05-17T00:13:14.726Z,165.90
2018-05-17T00:15:48.735Z,173.00
2018-05-17T00:18:16.880Z,132.37
2018-05-17T00:20:44.978Z,107.97
2018-05-17T00:23:13.121Z,112.13
2018-05-17T00:25:41.271Z,87.03
2018-05-17T00:28:09.370Z,93.83
2018-05-17T00:30:37.499Z,100.37
2018-05-17T00:33:05.603Z,135.57
2018-05-17T00:35:33.721Z,126.43
2018-05-17T00:38:01.843Z,152.07
2018-05-17T00:40:29.976Z,110.23
2018-05-17T00:42:58.105Z,129.53
2018-05-17T00:45:26.330Z,229.57
2018-05-17T00:47:54.504Z,175.57
2018-05-17T00:50:23.376Z,143.47
2018-05-17T00:53:03.123Z,116.10
2018-05-17T00:55:31.237Z,108.03
2018-05-17T00:57:59.343Z,114.10
2018-05-17T01:00:27.523Z,140.53
2018-05-17T01:02:55.662Z,115.57
2018-05-17T01:05:23.772Z,124.00
2018-05-17T01:07:51.907Z,123.30
2018-05-17T01:10:20.088Z,102.40
2018-05-17T01:12:48.192Z,160.03
2018-05-17T01:15:16.328Z,232.03
2018-05-17T01:17:44.459Z,173.23
2018-05-17T01:20:12.630Z,248.73
2018-05-17T01:22:40.772Z,128.20
2018-05-17T01:25:08.982Z,148.70
2018-05-17T01:27:37.187Z,145.67
2018-05-17T01:30:05.332Z,145.80
2018-05-17T01:32:33.466Z,127.27
2018-05-17T01:35:01.644Z,115.97
2018-05-17T01:37:47.530Z,107.80
2018-05-17T01:40:15.640Z,85.40
2018-05-17T01:42:43.770Z,77.57
2018-05-17T01:45:11.879Z,92.93
2018-05-17T01:47:39.984Z,98.80
2018-05-17T01:50:08.144Z,75.20
2018-05-17T01:52:36.300Z,64.20
2018-05-17T01:55:04.475Z,72.27
2018-05-17T01:57:32.623Z,54.63
2018-05-17T02:00:00.741Z,66.17
2018-05-17T02:02:28.899Z,69.20
2018-05-17T02:04:57.651Z,53.87
2018-05-17T02:07:25.767Z,56.90
2018-05-17T02:09:53.979Z,74.63
2018-05-17T02:12:22.192Z,74.80
2018-05-17T02:14:50.319Z,85.97
2018-05-17T02:17:18.457Z,77.00
2018-05-17T02:19:47.345Z,75.27
2018-05-17T02:22:15.482Z,107.50
2018-05-17T02:24:43.586Z,78.50
2018-05-17T02:27:11.715Z,172.60
2018-05-17T02:29:39.885Z,77.00
2018-05-17T02:32:08.010Z,150.50
2018-05-17T02:34:36.182Z,117.47
2018-05-17T02:37:04.300Z,98.93
2018-05-17T02:39:32.432Z,117.97
2018-05-17T02:42:00.549Z,97.70
2018-05-17T02:44:29.366Z,66.63
2018-05-17T02:46:57.466Z,154.90
2018-05-17T02:49:25.589Z,79.90
2018-05-17T02:51:53.712Z,85.03
2018-05-17T02:54:21.850Z,77.87
2018-05-17T02:56:49.962Z,104.50
2018-05-17T02:59:18.083Z,190.77
2018-05-17T03:01:46.258Z,173.20
2018-05-17T03:04:14.447Z,237.63
2018-05-17T03:06:42.719Z,111.67
2018-05-17T03:09:10.828Z,106.53
2018-05-17T03:11:40.375Z,130.03
2018-05-17T03:14:08.713Z,141.97
2018-05-17T03:16:36.857Z,120.50
2018-05-17T03:19:04.983Z,151.63
2018-05-17T03:21:33.145Z,108.10
2018-05-17T03:24:01.331Z,114.43
2018-05-17T03:26:29.563Z,120.03
2018-05-17T03:28:57.675Z,165.80
2018-05-17T03:31:25.827Z,137.43
2018-05-17T03:33:53.944Z,131.67
2018-05-17T03:36:22.442Z,177.30
2018-05-17T03:38:50.560Z,128.10
2018-05-17T03:41:19.286Z,118.53
2018-05-17T03:43:47.417Z,132.00
2018-05-17T03:46:15.604Z,183.67
2018-05-17T03:48:43.908Z,138.77
2018-05-17T03:51:12.108Z,116.57
2018-05-17T03:53:40.370Z,175.73
2018-05-17T03:56:08.546Z,145.10
2018-05-17T03:58:37.523Z,145.47
2018-05-17T04:01:23.338Z,115.87
2018-05-17T04:04:09.162Z,156.73
2018-05-17T04:06:42.712Z,128.63
2018-05-17T04:09:10.862Z,168.70
2018-05-17T04:11:38.984Z,109.73
2018-05-17T04:14:07.229Z,108.67
2018-05-17T04:16:35.354Z,111.53
2018-05-17T04:19:03.476Z,97.00
2018-05-17T04:21:31.614Z,105.37
2018-05-17T04:23:59.719Z,99.10
2018-05-17T04:26:27.871Z,102.17
2018-05-17T04:28:55.979Z,113.83
2018-05-17T04:31:24.097Z,99.27
2018-05-17T04:33:53.003Z,88.30
2018-05-17T04:36:21.131Z,70.77
2018-05-17T04:38:49.233Z,90.50
2018-05-17T04:41:17.355Z,103.30
2018-05-17T04:43:45.470Z,78.57
2018-05-17T04:46:13.582Z,64.13
2018-05-17T04:48:41.767Z,47.73
2018-05-17T04:51:09.895Z,55.03
2018-05-17T04:53:38.024Z,88.87
2018-05-17T04:56:06.212Z,72.87
2018-05-17T04:58:34.979Z,59.90
2018-05-17T05:01:10.168Z,54.10
2018-05-17T05:03:39.211Z,63.63
2018-05-17T05:06:07.468Z,63.67
2018-05-17T05:08:35.629Z,114.13
2018-05-17T05:11:04.059Z,86.50
2018-05-17T05:13:32.950Z,54.57
2018-05-17T05:16:01.728Z,44.67
2018-05-17T05:18:29.857Z,39.50
2018-05-17T05:20:57.996Z,43.97
2018-05-17T05:23:26.891Z,30.43
2018-05-17T05:25:55.264Z,36.23
2018-05-17T05:28:23.381Z,37.17
2018-05-17T05:30:51.557Z,29.87
2018-05-17T05:33:20.196Z,28.63
2018-05-17T05:35:48.371Z,45.80
2018-05-17T05:38:16.499Z,45.20
2018-05-17T05:40:44.625Z,43.77
2018-05-17T05:43:14.178Z,78.63
2018-05-17T05:45:43.009Z,24.77
2018-05-17T05:48:11.145Z,19.27
2018-05-17T05:50:39.980Z,18.53
2018-05-17T05:53:08.192Z,10.67
2018-05-17T05:55:36.323Z,10.63
2018-05-17T05:58:05.317Z,16.17
2018-05-17T06:00:33.601Z,10.70
2018-05-17T06:03:01.850Z,12.20
2018-05-17T06:05:29.993Z,9.07
2018-05-17T06:07:58.719Z,12.83
2018-05-17T06:10:26.829Z,8.23
2018-05-17T06:12:55.933Z,11.77
2018-05-17T06:15:24.097Z,11.30
2018-05-17T06:17:52.292Z,7.17
2018-05-17T06:20:20.422Z,8.27
2018-05-17T06:22:48.542Z,8.60
2018-05-17T06:25:16.820Z,5.97
2018-05-17T06:27:45.902Z,5.87
2018-05-17T06:30:14.019Z,4.77
2018-05-17T06:32:42.144Z,4.53
2018-05-17T06:35:10.244Z,4.53
2018-05-17T06:37:38.425Z,4.33
2018-05-17T06:40:06.559Z,4.80
2018-05-17T06:42:34.810Z,5.47
2018-05-17T06:45:03.680Z,5.33
2018-05-17T06:47:31.808Z,4.23
2018-05-17T06:49:59.917Z,4.77
2018-05-17T06:52:28.686Z,5.80
2018-05-17T06:54:56.871Z,5.17
2018-05-17T06:57:24.972Z,6.37
2018-05-17T06:59:53.100Z,5.50
2018-05-17T07:02:21.195Z,4.13
2018-05-17T07:04:49.310Z,4.50
2018-05-17T07:07:17.408Z,4.70
2018-05-17T07:09:45.532Z,6.47
2018-05-17T07:12:13.641Z,4.10
2018-05-17T07:14:41.840Z,3.43
2018-05-17T07:17:09.961Z,3.20
2018-05-17T07:19:38.088Z,2.80
2018-05-17T07:22:06.204Z,3.10
2018-05-17T07:24:34.295Z,3.60
2018-05-17T07:27:02.423Z,3.00
2018-05-17T07:29:30.605Z,3.53
2018-05-17T07:31:58.770Z,3.30
2018-05-17T07:34:27.363Z,4.77
2018-05-17T07:36:56.273Z,4.40
2018-05-17T07:39:24.383Z,4.53
2018-05-17T07:41:52.496Z,4.03
2018-05-17T07:44:20.625Z,5.53
2018-05-17T07:46:48.778Z,6.30
2018-05-17T07:49:16.885Z,4.20
2018-05-17T07:51:44.988Z,4.00
2018-05-17T07:54:13.117Z,5.63
2018-05-17T07:56:41.226Z,4.30
2018-05-17T07:59:09.370Z,4.33
2018-05-17T08:01:37.508Z,3.13
2018-05-17T08:04:05.617Z,3.60
2018-05-17T08:06:34.475Z,3.90
2018-05-17T08:09:02.592Z,5.13
2018-05-17T08:11:30.692Z,3.47
2018-05-17T08:13:58.789Z,2.90
2018-05-17T08:16:26.991Z,4.43
2018-05-17T08:18:55.087Z,4.17
2018-05-17T08:21:23.567Z,4.20
2018-05-17T08:23:51.681Z,4.07
2018-05-17T08:26:19.811Z,3.80
2018-05-17T08:28:47.929Z,3.73
2018-05-17T08:31:16.036Z,4.40
2018-05-17T08:33:44.138Z,4.27
2018-05-17T08:36:12.294Z,5.00
2018-05-17T08:38:40.395Z,4.17
2018-05-17T08:41:08.499Z,4.33
2018-05-17T08:43:36.643Z,4.47
2018-05-17T08:46:05.558Z,4.00
2018-05-17T08:48:33.695Z,4.70
2018-05-17T08:51:01.800Z,4.50
2018-05-17T08:53:29.922Z,4.73
2018-05-17T08:55:58.803Z,4.67
2018-05-17T08:58:27.592Z,7.50
2018-05-17T09:00:55.717Z,5.13
2018-05-17T09:03:23.918Z,4.97
2018-05-17T09:05:52.169Z,5.93
2018-05-17T09:08:20.397Z,5.13
2018-05-17T09:10:48.921Z,5.23
2018-05-17T09:13:17.808Z,5.03
2018-05-17T09:15:45.894Z,5.23
2018-05-17T09:18:14.814Z,4.93
2018-05-17T09:20:42.967Z,5.03
2018-05-17T09:23:11.072Z,5.00
2018-05-17T09:25:39.164Z,5.23
2018-05-17T09:28:07.364Z,4.33
2018-05-17T09:30:35.579Z,4.73
2018-05-17T09:33:03.852Z,4.47
2018-05-17T09:35:32.024Z,4.13
2018-05-17T09:38:00.278Z,4.40
2018-05-17T09:40:28.507Z,4.13
2018-05-17T09:42:56.596Z,4.77
2018-05-17T09:45:24.814Z,4.80
2018-05-17T09:47:53.575Z,4.57
2018-05-17T09:50:21.750Z,4.77
2018-05-17T09:52:49.855Z,5.97
2018-05-17T09:55:18.023Z,6.00
2018-05-17T09:57:46.173Z,5.23
2018-05-17T10:00:19.681Z,6.03
2018-05-17T10:02:47.788Z,6.40
2018-05-17T10:05:15.895Z,11.37
2018-05-17T10:07:44.830Z,13.73
2018-05-17T10:10:13.257Z,11.20
2018-05-17T10:12:41.393Z,9.23
2018-05-17T10:15:09.499Z,5.20
2018-05-17T10:17:37.603Z,8.63
2018-05-17T10:20:05.705Z,6.63
2018-05-17T10:22:33.827Z,6.60
2018-05-17T10:25:02.691Z,6.00
2018-05-17T10:27:30.779Z,5.03
2018-05-17T10:29:58.939Z,4.87
2018-05-17T10:32:27.024Z,5.17
2018-05-17T10:34:55.134Z,4.97
2018-05-17T10:37:23.253Z,4.60
2018-05-17T10:39:51.639Z,3.93
2018-05-17T10:42:19.816Z,4.40
2018-05-17T10:44:47.907Z,4.80
2018-05-17T10:47:16.846Z,5.27
2018-05-17T10:49:44.965Z,5.27
2018-05-17T10:52:13.104Z,6.97
2018-05-17T10:54:41.204Z,6.63
2018-05-17T10:57:09.318Z,7.80
2018-05-17T10:59:37.861Z,6.47
2018-05-17T11:02:05.976Z,6.97
2018-05-17T11:04:34.075Z,5.53
2018-05-17T11:07:02.213Z,6.60
2018-05-17T11:09:30.320Z,4.87
2018-05-17T11:11:58.419Z,6.13
2018-05-17T11:14:26.606Z,5.90
2018-05-17T11:16:55.306Z,5.10
2018-05-17T11:19:24.598Z,5.23
2018-05-17T11:21:53.453Z,4.87
2018-05-17T11:24:21.587Z,5.10
2018-05-17T11:26:49.689Z,5.97
2018-05-17T11:29:17.796Z,4.97
2018-05-17T11:31:45.929Z,5.70
2018-05-17T11:34:14.030Z,6.30
2018-05-17T11:36:42.153Z,5.27
2018-05-17T11:39:10.284Z,5.33
2018-05-17T11:41:38.559Z,4.60
2018-05-17T11:44:06.832Z,5.13
2018-05-17T11:46:35.603Z,4.23
2018-05-17T11:49:03.673Z,4.10
2018-05-17T11:51:31.801Z,3.80
2018-05-17T11:53:59.954Z,3.87
2018-05-17T11:56:28.100Z,4.13
2018-05-17T11:58:56.196Z,4.97
2018-05-17T12:01:25.334Z,5.33
2018-05-17T12:03:53.428Z,3.37
2018-05-17T12:06:22.006Z,3.83
2018-05-17T12:08:50.220Z,3.90
2018-05-17T12:11:18.412Z,3.73
2018-05-17T12:13:47.288Z,4.10
2018-05-17T12:16:16.146Z,3.97
2018-05-17T12:18:44.289Z,3.97
2018-05-17T12:21:12.407Z,6.27
2018-05-17T12:23:40.501Z,4.17
2018-05-17T12:26:08.642Z,4.23
2018-05-17T12:28:37.508Z,3.90
2018-05-17T12:31:06.442Z,3.63
2018-05-17T12:33:34.541Z,3.77
2018-05-17T12:36:02.658Z,3.90
2018-05-17T12:38:30.757Z,4.60
2018-05-17T12:40:58.894Z,5.27
2018-05-17T12:43:27.010Z,4.77
2018-05-17T12:45:55.126Z,4.67
2018-05-17T12:48:23.251Z,6.23
2018-05-17T12:50:51.438Z,5.83
2018-05-17T12:53:19.663Z,5.63
2018-05-17T12:55:47.880Z,6.27
2018-05-17T12:58:16.124Z,6.90
2018-05-17T13:00:44.338Z,8.93
2018-05-17T13:03:13.215Z,8.33
2018-05-17T13:05:41.314Z,8.07
2018-05-17T13:08:10.003Z,12.50
2018-05-17T13:10:38.173Z,10.63
2018-05-17T13:13:06.367Z,13.17
2018-05-17T13:15:34.399Z,12.10
2018-05-17T13:18:03.287Z,16.20
2018-05-17T13:20:32.175Z,10.87
2018-05-17T13:23:01.024Z,8.97
2018-05-17T13:25:29.135Z,8.37
2018-05-17T13:27:58.109Z,8.57
2018-05-17T13:30:26.312Z,6.20
2018-05-17T13:32:55.198Z,7.30
2018-05-17T13:35:24.080Z,7.20
2018-05-17T13:37:52.190Z,6.67
2018-05-17T13:40:20.296Z,6.93
2018-05-17T13:42:48.416Z,5.97
2018-05-17T13:45:16.507Z,6.40
2018-05-17T13:47:44.680Z,7.43
2018-05-17T13:50:13.541Z,6.83
2018-05-17T13:52:42.464Z,6.17
2018-05-17T13:55:10.836Z,6.70
2018-05-17T13:57:38.963Z,5.80
2018-05-17T14:00:07.167Z,6.47
2018-05-17T14:02:35.569Z,6.83
2018-05-17T14:05:03.613Z,6.47
2018-05-17T14:07:31.727Z,2.47
2018-05-17T14:09:59.835Z,3.20
2018-05-17T14:12:27.990Z,2.30
2018-05-17T14:14:56.105Z,2.50
2018-05-17T14:17:24.233Z,2.83
2018-05-17T14:19:52.349Z,3.47
2018-05-17T14:22:20.701Z,3.37
2018-05-17T14:24:48.817Z,2.60
2018-05-17T14:27:16.999Z,3.00
2018-05-17T14:29:45.766Z,2.50
2018-05-17T14:32:13.918Z,4.97
2018-05-17T14:34:42.024Z,3.53
2018-05-17T14:37:10.150Z,4.17
2018-05-17T14:39:38.257Z,7.10
2018-05-17T14:42:06.406Z,3.17
2018-05-17T14:44:34.650Z,3.63
2018-05-17T14:47:02.894Z,5.03
2018-05-17T14:49:31.078Z,6.40
2018-05-17T14:51:59.204Z,5.03
2018-05-17T14:54:27.298Z,8.17
2018-05-17T14:56:55.444Z,5.37
2018-05-17T14:59:23.568Z,5.27
2018-05-17T15:01:52.610Z,5.53
2018-05-17T15:04:20.814Z,4.47
2018-05-17T15:06:48.928Z,3.97
2018-05-17T15:09:17.036Z,5.03
2018-05-17T15:11:45.183Z,8.53
2018-05-17T15:14:13.307Z,6.80
2018-05-17T15:16:41.424Z,8.33
2018-05-17T15:19:09.581Z,12.67
2018-05-17T15:21:37.813Z,12.13
2018-05-17T15:24:05.950Z,13.47
2018-05-17T15:26:34.048Z,10.07
2018-05-17T15:29:02.238Z,9.27
2018-05-17T15:31:30.425Z,12.83
2018-05-17T15:33:58.702Z,11.00
2018-05-17T15:36:26.859Z,19.70
2018-05-17T15:38:54.995Z,13.50
2018-05-17T15:41:23.093Z,13.17
2018-05-17T15:43:51.268Z,12.20
2018-05-17T15:46:19.544Z,11.17
2018-05-17T15:48:47.851Z,11.40
2018-05-17T15:51:15.945Z,10.80
2018-05-17T15:53:44.072Z,11.97
2018-05-17T15:56:13.180Z,15.07
2018-05-17T15:58:42.100Z,12.90
2018-05-17T16:01:10.566Z,16.03
2018-05-17T16:03:38.739Z,21.57
2018-05-17T16:06:06.916Z,22.50
2018-05-17T16:08:35.386Z,17.13
2018-05-17T16:11:03.530Z,16.27
2018-05-17T16:13:31.638Z,18.13
2018-05-17T16:16:00.234Z,13.83
2018-05-17T16:18:28.380Z,15.30
2018-05-17T16:20:56.662Z,16.40
2018-05-17T16:23:24.812Z,17.63
2018-05-17T16:25:53.391Z,21.23
2018-05-17T16:28:21.520Z,19.27
2018-05-17T16:30:49.624Z,19.93
2018-05-17T16:33:17.739Z,24.50
2018-05-17T16:35:45.896Z,43.07
2018-05-17T16:38:14.782Z,41.30
2018-05-17T16:40:42.912Z,54.57
2018-05-17T16:43:11.074Z,62.97
2018-05-17T16:45:39.283Z,75.70
2018-05-17T16:48:07.397Z,93.07
2018-05-17T16:50:35.569Z,115.00
2018-05-17T16:53:03.785Z,112.07
2018-05-17T16:55:31.914Z,120.10
2018-05-17T16:58:00.055Z,65.73
2018-05-17T17:00:28.246Z,100.30
2018-05-17T17:02:56.310Z,57.67
2018-05-17T17:05:24.437Z,86.07
2018-05-17T17:07:52.597Z,83.13
2018-05-17T17:10:20.721Z,45.00
2018-05-17T17:12:48.842Z,74.07
2018-05-17T17:15:17.763Z,47.63
2018-05-17T17:17:49.854Z,31.07
2018-05-17T17:20:17.878Z,45.83
2018-05-17T17:22:46.010Z,38.27
2018-05-17T17:25:14.142Z,39.90
2018-05-17T17:27:42.277Z,37.93
2018-05-17T17:30:10.416Z,40.17
2018-05-17T17:32:38.527Z,25.70
2018-05-17T17:35:06.663Z,37.07
2018-05-17T17:37:34.759Z,26.60
2018-05-17T17:40:03.027Z,24.27
2018-05-17T17:42:31.160Z,46.23
2018-05-17T17:44:59.281Z,42.50
2018-05-17T17:47:27.400Z,36.27
2018-05-17T17:49:55.617Z,31.93
2018-05-17T17:52:23.685Z,38.47
2018-05-17T17:54:51.873Z,37.97
2018-05-17T17:57:20.090Z,36.13
2018-05-17T17:59:48.213Z,33.03
2018-05-17T18:02:16.405Z,34.97
2018-05-17T18:04:44.650Z,37.80
2018-05-17T18:07:13.004Z,57.77
2018-05-17T18:09:41.181Z,50.47
2018-05-17T18:12:12.127Z,47.30
2018-05-17T18:14:40.690Z,60.37
2018-05-17T18:17:10.501Z,47.53
2018-05-17T18:19:41.140Z,47.20
2018-05-17T18:22:09.414Z,46.80
2018-05-17T18:24:37.737Z,40.23
2018-05-17T18:27:06.720Z,47.00
2018-05-17T18:29:38.177Z,53.03
2018-05-17T18:32:06.775Z,50.20
2018-05-17T18:34:41.127Z,60.93
2018-05-17T18:37:09.368Z,44.60
2018-05-17T18:39:37.588Z,43.90
2018-05-17T18:42:06.097Z,48.53
2018-05-17T18:44:34.704Z,43.07
2018-05-17T18:47:03.740Z,81.87
2018-05-17T18:49:32.341Z,46.63
2018-05-17T18:52:00.573Z,55.40
2018-05-17T18:54:28.746Z,51.47
2018-05-17T18:56:57.674Z,48.70
2018-05-17T18:59:25.784Z,44.27
2018-05-17T19:01:54.724Z,52.83
2018-05-17T19:04:22.795Z,39.00
2018-05-17T19:06:50.938Z,47.13
2018-05-17T19:09:19.059Z,72.93
2018-05-17T19:11:47.174Z,47.60
2018-05-17T19:14:15.293Z,60.37
2018-05-17T19:16:43.402Z,44.17
2018-05-17T19:19:11.582Z,77.97
2018-05-17T19:21:40.522Z,42.20
2018-05-17T19:24:08.653Z,58.40
2018-05-17T19:26:36.774Z,42.87
2018-05-17T19:29:04.903Z,66.67
2018-05-17T19:31:33.055Z,107.07
2018-05-17T19:34:01.246Z,65.57
2018-05-17T19:36:29.328Z,53.97
2018-05-17T19:38:58.835Z,65.63
2018-05-17T19:41:26.945Z,52.73
2018-05-17T19:43:55.090Z,51.13
2018-05-17T19:46:23.294Z,96.63
2018-05-17T19:48:51.477Z,68.93
2018-05-17T19:51:20.068Z,65.37
2018-05-17T19:53:48.234Z,106.57
2018-05-17T19:56:16.380Z,110.33
2018-05-17T19:58:45.282Z,81.63
2018-05-17T20:01:13.716Z,81.50
2018-05-17T20:03:41.841Z,81.70
2018-05-17T20:06:10.630Z,91.97
2018-05-17T20:08:38.774Z,88.23
2018-05-17T20:11:06.922Z,134.30
2018-05-17T20:13:35.058Z,152.33
2018-05-17T20:16:03.204Z,123.53
2018-05-17T20:18:31.471Z,139.97
2018-05-17T20:20:59.626Z,121.63
2018-05-17T20:23:27.823Z,104.83
2018-05-17T20:25:55.942Z,203.07
2018-05-17T20:28:24.097Z,125.87
2018-05-17T20:30:52.936Z,122.07
2018-05-17T20:33:21.067Z,128.23
2018-05-17T20:35:49.250Z,165.43
2018-05-17T20:38:17.384Z,150.50
2018-05-17T20:40:45.606Z,139.87
2018-05-17T20:43:13.900Z,158.07
2018-05-17T20:45:42.140Z,151.47
2018-05-17T20:48:10.415Z,152.87
2018-05-17T20:50:38.694Z,126.00
2018-05-17T20:53:06.956Z,155.23
2018-05-17T20:55:35.142Z,114.43
2018-05-17T20:58:08.344Z,105.13
2018-05-17T21:00:36.592Z,98.47
2018-05-17T21:03:04.767Z,121.30
2018-05-17T21:05:33.103Z,102.77
2018-05-17T21:08:01.283Z,101.43
2018-05-17T21:10:29.465Z,100.90
2018-05-17T21:12:58.333Z,108.30
2018-05-17T21:15:26.998Z,102.80
2018-05-17T21:17:55.237Z,115.53
2018-05-17T21:20:24.149Z,110.63
2018-05-17T21:22:52.277Z,114.63
2018-05-17T21:25:20.425Z,134.97
2018-05-17T21:27:48.569Z,105.53
2018-05-17T21:30:16.688Z,105.83
2018-05-17T21:32:44.857Z,108.77
2018-05-17T21:35:12.968Z,97.90
2018-05-17T21:37:41.086Z,96.87
2018-05-17T21:40:09.211Z,98.60
2018-05-17T21:42:37.364Z,99.77
2018-05-17T21:45:05.500Z,106.23
2018-05-17T21:47:33.654Z,99.70
2018-05-17T21:50:01.772Z,102.47
2018-05-17T21:52:29.903Z,94.23
2018-05-17T21:54:58.625Z,100.77
2018-05-17T21:57:27.372Z,121.27
2018-05-17T21:59:55.518Z,104.73
2018-05-17T22:02:24.403Z,131.80
2018-05-17T22:04:52.536Z,112.73
2018-05-17T22:07:20.657Z,95.23
2018-05-17T22:09:48.778Z,161.30
2018-05-17T22:12:16.885Z,129.73
2018-05-17T22:14:45.772Z,109.70
2018-05-17T22:17:13.910Z,113.03
2018-05-17T22:19:42.061Z,99.07
2018-05-17T22:22:10.242Z,118.90
2018-05-17T22:24:38.339Z,107.90
2018-05-17T22:27:06.494Z,116.37
2018-05-17T22:29:34.629Z,115.33
2018-05-17T22:32:02.788Z,129.60
2018-05-17T22:34:30.961Z,126.37
2018-05-17T22:36:59.077Z,113.97
2018-05-17T22:39:27.302Z,117.00
2018-05-17T22:41:56.042Z,122.90
2018-05-17T22:44:24.197Z,138.03
2018-05-17T22:46:52.352Z,109.83
2018-05-17T22:49:21.355Z,124.67
2018-05-17T22:51:49.646Z,121.87
2018-05-17T22:54:17.722Z,143.07
2018-05-17T22:57:03.544Z,141.57
2018-05-17T22:59:31.663Z,113.63
2018-05-17T23:02:00.044Z,182.47
2018-05-17T23:04:28.155Z,179.07
2018-05-17T23:06:56.285Z,120.00
2018-05-17T23:09:24.410Z,139.47
2018-05-17T23:11:52.544Z,170.43
2018-05-17T23:14:20.652Z,141.90
2018-05-17T23:16:48.762Z,157.57
2018-05-17T23:19:16.928Z,193.37
2018-05-17T23:21:45.065Z,250.63
2018-05-17T23:24:13.590Z,192.57
2018-05-17T23:26:41.711Z,285.57
2018-05-17T23:29:09.875Z,248.43
2018-05-17T23:31:38.679Z,232.60
2018-05-17T23:34:06.811Z,201.57
2018-05-17T23:36:34.933Z,204.03
2018-05-17T23:39:03.059Z,207.70
2018-05-17T23:41:37.581Z,195.33
2018-05-17T23:44:05.731Z,197.43
2018-05-17T23:46:33.835Z,179.67
2018-05-17T23:49:01.981Z,202.77
2018-05-17T23:51:30.109Z,173.97
2018-05-17T23:53:58.228Z,195.20
2018-05-17T23:56:26.367Z,192.10
2018-05-17T23:58:54.509Z,184.17
